sensor_id;sensor_type;location;lat;lon;timestamp;temperature;humidity
439;DHT22;206;48.782;9.252;2022-08-07T00:01:05;21.60;13.30
439;DHT22;206;48.782;9.252;2022-08-07T00:03:31;21.70;13.20
439;DHT22;206;48.782;9.252;2022-08-07T00:05:57;21.80;12.70
439;DHT22;206;48.782;9.252;2022-08-07T00:08:23;21.50;13.00
439;DHT22;206;48.782;9.252;2022-08-07T00:10:49;21.50;13.20
439;DHT22;206;48.782;9.252;2022-08-07T00:13:16;21.50;13.50
439;DHT22;206;48.782;9.252;2022-08-07T00:15:42;21.50;12.90
439;DHT22;206;48.782;9.252;2022-08-07T00:18:08;21.50;12.80
439;DHT22;206;48.782;9.252;2022-08-07T00:20:35;21.50;13.00
439;DHT22;206;48.782;9.252;2022-08-07T00:23:01;21.40;12.80
439;DHT22;206;48.782;9.252;2022-08-07T00:25:27;21.30;12.70
439;DHT22;206;48.782;9.252;2022-08-07T00:27:52;21.30;13.10
439;DHT22;206;48.782;9.252;2022-08-07T00:30:18;21.20;12.70
439;DHT22;206;48.782;9.252;2022-08-07T00:32:47;21.00;13.10
439;DHT22;206;48.782;9.252;2022-08-07T00:35:13;21.00;13.30
439;DHT22;206;48.782;9.252;2022-08-07T00:37:39;21.00;13.10
439;DHT22;206;48.782;9.252;2022-08-07T00:40:05;20.90;13.40
439;DHT22;206;48.782;9.252;2022-08-07T00:42:32;20.70;13.40
439;DHT22;206;48.782;9.252;2022-08-07T00:44:58;20.70;13.70
439;DHT22;206;48.782;9.252;2022-08-07T00:47:24;20.80;13.50
439;DHT22;206;48.782;9.252;2022-08-07T00:49:49;20.70;13.50
439;DHT22;206;48.782;9.252;2022-08-07T00:52:15;20.80;13.40
439;DHT22;206;48.782;9.252;2022-08-07T00:54:41;21.00;13.20
439;DHT22;206;48.782;9.252;2022-08-07T00:57:06;21.00;13.20
439;DHT22;206;48.782;9.252;2022-08-07T00:59:34;21.10;13.00
439;DHT22;206;48.782;9.252;2022-08-07T01:02:02;21.20;12.90
439;DHT22;206;48.782;9.252;2022-08-07T01:04:28;21.30;12.90
439;DHT22;206;48.782;9.252;2022-08-07T01:06:54;21.20;12.70
439;DHT22;206;48.782;9.252;2022-08-07T01:09:20;21.10;12.90
439;DHT22;206;48.782;9.252;2022-08-07T01:11:49;20.80;13.60
439;DHT22;206;48.782;9.252;2022-08-07T01:14:15;20.70;13.60
439;DHT22;206;48.782;9.252;2022-08-07T01:16:41;20.70;13.70
439;DHT22;206;48.782;9.252;2022-08-07T01:19:07;20.70;13.80
439;DHT22;206;48.782;9.252;2022-08-07T01:21:33;20.70;14.40
439;DHT22;206;48.782;9.252;2022-08-07T01:23:59;20.80;14.40
439;DHT22;206;48.782;9.252;2022-08-07T01:26:26;20.80;14.10
439;DHT22;206;48.782;9.252;2022-08-07T01:28:52;20.80;14.00
439;DHT22;206;48.782;9.252;2022-08-07T01:31:19;20.90;14.10
439;DHT22;206;48.782;9.252;2022-08-07T01:33:46;20.90;14.00
439;DHT22;206;48.782;9.252;2022-08-07T01:36:12;20.90;13.90
439;DHT22;206;48.782;9.252;2022-08-07T01:38:38;20.90;14.10
439;DHT22;206;48.782;9.252;2022-08-07T01:41:05;20.90;13.90
439;DHT22;206;48.782;9.252;2022-08-07T01:43:34;20.90;14.10
439;DHT22;206;48.782;9.252;2022-08-07T01:46:01;21.00;14.30
439;DHT22;206;48.782;9.252;2022-08-07T01:48:27;21.00;14.10
439;DHT22;206;48.782;9.252;2022-08-07T01:50:58;20.90;14.20
439;DHT22;206;48.782;9.252;2022-08-07T01:53:26;20.90;14.00
439;DHT22;206;48.782;9.252;2022-08-07T01:55:56;21.00;14.40
439;DHT22;206;48.782;9.252;2022-08-07T01:58:30;20.80;13.80
439;DHT22;206;48.782;9.252;2022-08-07T02:01:00;20.80;13.90
439;DHT22;206;48.782;9.252;2022-08-07T02:03:27;20.60;14.00
439;DHT22;206;48.782;9.252;2022-08-07T02:05:57;20.50;14.30
439;DHT22;206;48.782;9.252;2022-08-07T02:08:25;20.60;14.90
439;DHT22;206;48.782;9.252;2022-08-07T02:10:53;20.50;14.80
439;DHT22;206;48.782;9.252;2022-08-07T02:13:26;20.50;15.50
439;DHT22;206;48.782;9.252;2022-08-07T02:15:54;20.50;14.70
439;DHT22;206;48.782;9.252;2022-08-07T02:18:21;20.60;14.80
439;DHT22;206;48.782;9.252;2022-08-07T02:20:51;20.60;14.30
439;DHT22;206;48.782;9.252;2022-08-07T02:23:18;20.70;14.60
439;DHT22;206;48.782;9.252;2022-08-07T02:25:45;20.70;15.00
439;DHT22;206;48.782;9.252;2022-08-07T02:28:12;20.70;15.00
439;DHT22;206;48.782;9.252;2022-08-07T02:30:40;20.70;14.80
439;DHT22;206;48.782;9.252;2022-08-07T02:33:07;20.60;14.80
439;DHT22;206;48.782;9.252;2022-08-07T02:35:35;20.60;15.00
439;DHT22;206;48.782;9.252;2022-08-07T02:38:02;20.50;15.00
439;DHT22;206;48.782;9.252;2022-08-07T02:40:29;20.50;15.10
439;DHT22;206;48.782;9.252;2022-08-07T02:42:56;20.50;15.10
439;DHT22;206;48.782;9.252;2022-08-07T02:45:25;20.50;15.80
439;DHT22;206;48.782;9.252;2022-08-07T02:47:51;20.40;15.70
439;DHT22;206;48.782;9.252;2022-08-07T02:50:17;20.40;15.70
439;DHT22;206;48.782;9.252;2022-08-07T02:52:52;20.40;15.70
439;DHT22;206;48.782;9.252;2022-08-07T02:55:23;20.40;15.70
439;DHT22;206;48.782;9.252;2022-08-07T02:57:51;20.40;15.70
439;DHT22;206;48.782;9.252;2022-08-07T03:00:17;20.30;15.60
439;DHT22;206;48.782;9.252;2022-08-07T03:02:47;20.30;15.60
439;DHT22;206;48.782;9.252;2022-08-07T03:05:15;20.30;15.60
439;DHT22;206;48.782;9.252;2022-08-07T03:07:42;20.30;15.60
439;DHT22;206;48.782;9.252;2022-08-07T03:10:09;20.30;15.70
439;DHT22;206;48.782;9.252;2022-08-07T03:12:36;20.40;16.10
439;DHT22;206;48.782;9.252;2022-08-07T03:15:03;20.30;16.30
439;DHT22;206;48.782;9.252;2022-08-07T03:17:31;20.30;16.10
439;DHT22;206;48.782;9.252;2022-08-07T03:19:56;20.30;16.80
439;DHT22;206;48.782;9.252;2022-08-07T03:22:23;20.30;16.40
439;DHT22;206;48.782;9.252;2022-08-07T03:24:49;20.30;16.60
439;DHT22;206;48.782;9.252;2022-08-07T03:27:16;20.30;16.50
439;DHT22;206;48.782;9.252;2022-08-07T03:29:48;20.30;16.50
439;DHT22;206;48.782;9.252;2022-08-07T03:32:16;20.20;16.50
439;DHT22;206;48.782;9.252;2022-08-07T03:34:45;20.00;16.70
439;DHT22;206;48.782;9.252;2022-08-07T03:37:13;20.00;16.80
439;DHT22;206;48.782;9.252;2022-08-07T03:39:41;19.90;16.90
439;DHT22;206;48.782;9.252;2022-08-07T03:42:07;19.90;17.20
439;DHT22;206;48.782;9.252;2022-08-07T03:44:35;19.90;17.30
439;DHT22;206;48.782;9.252;2022-08-07T03:47:01;19.80;17.20
439;DHT22;206;48.782;9.252;2022-08-07T03:49:27;19.90;17.60
439;DHT22;206;48.782;9.252;2022-08-07T03:51:54;19.90;17.30
439;DHT22;206;48.782;9.252;2022-08-07T03:54:21;19.90;17.30
439;DHT22;206;48.782;9.252;2022-08-07T03:56:47;19.90;17.30
439;DHT22;206;48.782;9.252;2022-08-07T03:59:14;19.90;18.00
439;DHT22;206;48.782;9.252;2022-08-07T04:01:41;19.90;17.40
439;DHT22;206;48.782;9.252;2022-08-07T04:04:08;20.00;17.30
439;DHT22;206;48.782;9.252;2022-08-07T04:06:36;19.90;17.20
439;DHT22;206;48.782;9.252;2022-08-07T04:09:02;19.90;17.50
439;DHT22;206;48.782;9.252;2022-08-07T04:11:29;19.90;17.50
439;DHT22;206;48.782;9.252;2022-08-07T04:13:56;19.90;17.60
439;DHT22;206;48.782;9.252;2022-08-07T04:16:22;19.90;17.60
439;DHT22;206;48.782;9.252;2022-08-07T04:18:48;19.90;17.70
439;DHT22;206;48.782;9.252;2022-08-07T04:21:14;19.90;17.70
439;DHT22;206;48.782;9.252;2022-08-07T04:23:40;19.80;17.80
439;DHT22;206;48.782;9.252;2022-08-07T04:26:07;19.70;17.90
439;DHT22;206;48.782;9.252;2022-08-07T04:28:33;19.70;18.00
439;DHT22;206;48.782;9.252;2022-08-07T04:30:59;19.80;18.10
439;DHT22;206;48.782;9.252;2022-08-07T04:33:25;19.70;18.10
439;DHT22;206;48.782;9.252;2022-08-07T04:35:52;19.80;18.20
439;DHT22;206;48.782;9.252;2022-08-07T04:38:18;19.80;18.20
439;DHT22;206;48.782;9.252;2022-08-07T04:40:45;19.80;17.90
439;DHT22;206;48.782;9.252;2022-08-07T04:43:13;19.80;18.20
439;DHT22;206;48.782;9.252;2022-08-07T04:45:52;19.80;18.20
439;DHT22;206;48.782;9.252;2022-08-07T04:48:48;19.80;18.40
439;DHT22;206;48.782;9.252;2022-08-07T05:00:13;19.90;18.80
439;DHT22;206;48.782;9.252;2022-08-07T05:02:57;19.80;18.90
439;DHT22;206;48.782;9.252;2022-08-07T05:08:03;19.80;19.40
439;DHT22;206;48.782;9.252;2022-08-07T05:10:36;19.80;19.30
439;DHT22;206;48.782;9.252;2022-08-07T05:13:18;19.90;19.40
439;DHT22;206;48.782;9.252;2022-08-07T05:15:48;19.90;19.30
439;DHT22;206;48.782;9.252;2022-08-07T05:18:32;20.00;19.20
439;DHT22;206;48.782;9.252;2022-08-07T05:21:03;20.10;19.40
439;DHT22;206;48.782;9.252;2022-08-07T05:23:44;20.10;19.50
439;DHT22;206;48.782;9.252;2022-08-07T05:26:15;20.20;19.60
439;DHT22;206;48.782;9.252;2022-08-07T05:28:41;20.20;19.50
439;DHT22;206;48.782;9.252;2022-08-07T05:31:07;20.20;19.80
439;DHT22;206;48.782;9.252;2022-08-07T05:33:36;20.20;19.90
439;DHT22;206;48.782;9.252;2022-08-07T05:36:04;20.30;19.90
439;DHT22;206;48.782;9.252;2022-08-07T05:38:31;20.30;20.00
439;DHT22;206;48.782;9.252;2022-08-07T05:40:58;20.20;20.30
439;DHT22;206;48.782;9.252;2022-08-07T05:43:24;20.00;20.50
439;DHT22;206;48.782;9.252;2022-08-07T05:45:50;20.00;20.80
439;DHT22;206;48.782;9.252;2022-08-07T05:48:17;20.00;21.10
439;DHT22;206;48.782;9.252;2022-08-07T05:50:44;20.00;21.40
439;DHT22;206;48.782;9.252;2022-08-07T05:53:10;20.00;21.30
439;DHT22;206;48.782;9.252;2022-08-07T05:55:36;19.90;21.80
439;DHT22;206;48.782;9.252;2022-08-07T05:58:04;19.90;22.10
439;DHT22;206;48.782;9.252;2022-08-07T06:00:32;19.90;22.30
439;DHT22;206;48.782;9.252;2022-08-07T06:02:59;19.90;22.50
439;DHT22;206;48.782;9.252;2022-08-07T06:05:26;20.00;22.30
439;DHT22;206;48.782;9.252;2022-08-07T06:07:53;20.20;22.30
439;DHT22;206;48.782;9.252;2022-08-07T06:10:20;20.30;22.40
439;DHT22;206;48.782;9.252;2022-08-07T06:12:45;20.50;22.10
439;DHT22;206;48.782;9.252;2022-08-07T06:15:14;20.50;22.00
439;DHT22;206;48.782;9.252;2022-08-07T06:17:42;20.60;21.90
439;DHT22;206;48.782;9.252;2022-08-07T06:20:08;20.80;22.50
439;DHT22;206;48.782;9.252;2022-08-07T06:22:39;20.70;23.10
439;DHT22;206;48.782;9.252;2022-08-07T06:25:06;20.50;23.50
439;DHT22;206;48.782;9.252;2022-08-07T06:27:32;20.50;23.70
439;DHT22;206;48.782;9.252;2022-08-07T06:29:59;20.60;23.30
439;DHT22;206;48.782;9.252;2022-08-07T06:32:25;20.70;23.60
439;DHT22;206;48.782;9.252;2022-08-07T06:34:51;20.80;23.50
439;DHT22;206;48.782;9.252;2022-08-07T06:37:16;20.90;23.70
439;DHT22;206;48.782;9.252;2022-08-07T06:39:42;21.00;24.50
439;DHT22;206;48.782;9.252;2022-08-07T06:42:25;21.10;24.60
439;DHT22;206;48.782;9.252;2022-08-07T06:44:52;21.30;24.10
439;DHT22;206;48.782;9.252;2022-08-07T06:47:19;21.50;24.10
439;DHT22;206;48.782;9.252;2022-08-07T06:49:44;21.60;24.10
439;DHT22;206;48.782;9.252;2022-08-07T06:52:11;21.70;23.90
439;DHT22;206;48.782;9.252;2022-08-07T06:54:39;22.00;23.50
439;DHT22;206;48.782;9.252;2022-08-07T06:57:07;22.00;24.40
439;DHT22;206;48.782;9.252;2022-08-07T06:59:38;22.10;24.50
439;DHT22;206;48.782;9.252;2022-08-07T07:02:07;22.10;24.60
439;DHT22;206;48.782;9.252;2022-08-07T07:04:33;22.30;24.20
439;DHT22;206;48.782;9.252;2022-08-07T07:07:00;22.50;23.80
439;DHT22;206;48.782;9.252;2022-08-07T07:09:28;22.80;23.30
439;DHT22;206;48.782;9.252;2022-08-07T07:17:47;23.50;20.90
439;DHT22;206;48.782;9.252;2022-08-07T07:20:33;24.00;20.30
439;DHT22;206;48.782;9.252;2022-08-07T07:23:00;24.50;19.50
439;DHT22;206;48.782;9.252;2022-08-07T07:25:26;24.90;18.80
439;DHT22;206;48.782;9.252;2022-08-07T07:27:57;25.20;17.90
439;DHT22;206;48.782;9.252;2022-08-07T07:30:26;25.50;17.20
439;DHT22;206;48.782;9.252;2022-08-07T07:32:56;25.60;16.30
439;DHT22;206;48.782;9.252;2022-08-07T07:35:23;25.40;16.40
439;DHT22;206;48.782;9.252;2022-08-07T07:37:50;25.60;16.40
439;DHT22;206;48.782;9.252;2022-08-07T07:40:19;25.90;16.00
439;DHT22;206;48.782;9.252;2022-08-07T07:42:49;25.90;15.70
439;DHT22;206;48.782;9.252;2022-08-07T07:45:17;26.20;14.10
439;DHT22;206;48.782;9.252;2022-08-07T07:47:44;26.30;13.60
439;DHT22;206;48.782;9.252;2022-08-07T07:50:12;26.40;13.30
439;DHT22;206;48.782;9.252;2022-08-07T07:52:43;26.50;13.30
439;DHT22;206;48.782;9.252;2022-08-07T07:55:09;26.70;12.10
439;DHT22;206;48.782;9.252;2022-08-07T07:57:35;26.60;12.20
439;DHT22;206;48.782;9.252;2022-08-07T08:00:03;26.60;11.90
439;DHT22;206;48.782;9.252;2022-08-07T08:02:30;26.60;12.10
439;DHT22;206;48.782;9.252;2022-08-07T08:04:58;26.40;12.20
439;DHT22;206;48.782;9.252;2022-08-07T08:07:26;26.20;12.50
439;DHT22;206;48.782;9.252;2022-08-07T08:09:52;26.20;12.20
439;DHT22;206;48.782;9.252;2022-08-07T08:12:19;26.20;12.40
439;DHT22;206;48.782;9.252;2022-08-07T08:14:45;26.20;12.30
439;DHT22;206;48.782;9.252;2022-08-07T08:17:12;26.20;12.20
439;DHT22;206;48.782;9.252;2022-08-07T08:19:39;26.20;12.30
439;DHT22;206;48.782;9.252;2022-08-07T08:22:09;26.20;12.30
439;DHT22;206;48.782;9.252;2022-08-07T08:24:55;26.40;11.60
439;DHT22;206;48.782;9.252;2022-08-07T08:27:41;26.30;11.60
439;DHT22;206;48.782;9.252;2022-08-07T08:30:10;26.50;10.90
439;DHT22;206;48.782;9.252;2022-08-07T08:32:40;26.60;11.00
439;DHT22;206;48.782;9.252;2022-08-07T08:35:08;26.70;11.00
439;DHT22;206;48.782;9.252;2022-08-07T08:37:35;26.40;10.90
439;DHT22;206;48.782;9.252;2022-08-07T08:40:08;26.50;10.50
439;DHT22;206;48.782;9.252;2022-08-07T08:42:40;26.40;10.60
439;DHT22;206;48.782;9.252;2022-08-07T08:45:19;26.40;10.50
439;DHT22;206;48.782;9.252;2022-08-07T08:47:54;26.60;10.20
439;DHT22;206;48.782;9.252;2022-08-07T08:50:30;26.60;10.10
439;DHT22;206;48.782;9.252;2022-08-07T08:53:26;26.70;8.60
439;DHT22;206;48.782;9.252;2022-08-07T08:56:02;26.80;9.70
439;DHT22;206;48.782;9.252;2022-08-07T08:59:10;26.90;8.60
439;DHT22;206;48.782;9.252;2022-08-07T09:01:48;26.90;7.10
439;DHT22;206;48.782;9.252;2022-08-07T09:04:44;26.80;7.20
439;DHT22;206;48.782;9.252;2022-08-07T09:07:37;26.70;7.50
439;DHT22;206;48.782;9.252;2022-08-07T09:10:22;26.60;7.90
439;DHT22;206;48.782;9.252;2022-08-07T09:12:58;26.30;7.40
439;DHT22;206;48.782;9.252;2022-08-07T09:15:37;26.20;7.50
439;DHT22;206;48.782;9.252;2022-08-07T09:21:28;26.20;7.90
439;DHT22;206;48.782;9.252;2022-08-07T09:29:34;26.40;7.10
439;DHT22;206;48.782;9.252;2022-08-07T09:51:43;26.10;6.30
439;DHT22;206;48.782;9.252;2022-08-07T09:54:25;26.10;6.00
439;DHT22;206;48.782;9.252;2022-08-07T10:02:41;26.10;5.60
439;DHT22;206;48.782;9.252;2022-08-07T10:11:02;26.10;5.10
439;DHT22;206;48.782;9.252;2022-08-07T10:13:43;26.00;5.20
439;DHT22;206;48.782;9.252;2022-08-07T10:24:31;26.00;5.20
439;DHT22;206;48.782;9.252;2022-08-07T10:30:04;26.00;5.60
439;DHT22;206;48.782;9.252;2022-08-07T10:43:49;26.00;5.50
439;DHT22;206;48.782;9.252;2022-08-07T10:46:24;25.90;5.60
439;DHT22;206;48.782;9.252;2022-08-07T10:49:01;26.00;5.60
439;DHT22;206;48.782;9.252;2022-08-07T11:00:06;26.10;5.70
439;DHT22;206;48.782;9.252;2022-08-07T11:02:49;26.20;5.90
439;DHT22;206;48.782;9.252;2022-08-07T11:11:32;26.40;5.10
439;DHT22;206;48.782;9.252;2022-08-07T11:14:06;26.50;4.70
439;DHT22;206;48.782;9.252;2022-08-07T11:16:40;26.50;5.10
439;DHT22;206;48.782;9.252;2022-08-07T11:22:08;26.60;4.70
439;DHT22;206;48.782;9.252;2022-08-07T11:28:11;26.50;4.80
439;DHT22;206;48.782;9.252;2022-08-07T11:33:30;26.70;5.00
439;DHT22;206;48.782;9.252;2022-08-07T11:41:52;26.80;4.60
439;DHT22;206;48.782;9.252;2022-08-07T11:50:10;27.00;4.30
439;DHT22;206;48.782;9.252;2022-08-07T12:01:00;27.40;4.00
439;DHT22;206;48.782;9.252;2022-08-07T12:04:12;27.40;3.80
439;DHT22;206;48.782;9.252;2022-08-07T12:12:18;27.40;3.40
439;DHT22;206;48.782;9.252;2022-08-07T12:15:10;27.50;3.20
439;DHT22;206;48.782;9.252;2022-08-07T12:17:51;27.50;2.90
439;DHT22;206;48.782;9.252;2022-08-07T12:20:36;27.50;2.70
439;DHT22;206;48.782;9.252;2022-08-07T12:23:39;27.60;3.10
439;DHT22;206;48.782;9.252;2022-08-07T12:26:21;27.60;2.50
439;DHT22;206;48.782;9.252;2022-08-07T12:31:40;27.70;2.50
439;DHT22;206;48.782;9.252;2022-08-07T12:34:10;27.70;2.50
439;DHT22;206;48.782;9.252;2022-08-07T12:36:36;27.70;2.50
439;DHT22;206;48.782;9.252;2022-08-07T12:39:06;27.70;2.50
439;DHT22;206;48.782;9.252;2022-08-07T12:41:36;27.80;3.30
439;DHT22;206;48.782;9.252;2022-08-07T12:44:08;27.80;2.60
439;DHT22;206;48.782;9.252;2022-08-07T12:46:54;27.80;2.60
439;DHT22;206;48.782;9.252;2022-08-07T12:49:36;27.80;2.60
439;DHT22;206;48.782;9.252;2022-08-07T12:52:13;27.70;2.50
439;DHT22;206;48.782;9.252;2022-08-07T12:54:50;27.80;2.60
439;DHT22;206;48.782;9.252;2022-08-07T12:57:20;27.80;2.60
439;DHT22;206;48.782;9.252;2022-08-07T12:59:49;27.90;2.70
439;DHT22;206;48.782;9.252;2022-08-07T13:02:28;28.00;3.00
439;DHT22;206;48.782;9.252;2022-08-07T13:05:23;27.90;2.70
439;DHT22;206;48.782;9.252;2022-08-07T13:08:05;27.90;2.60
439;DHT22;206;48.782;9.252;2022-08-07T13:10:59;27.90;2.60
439;DHT22;206;48.782;9.252;2022-08-07T13:16:28;28.00;2.70
439;DHT22;206;48.782;9.252;2022-08-07T13:21:45;28.10;2.80
439;DHT22;206;48.782;9.252;2022-08-07T13:24:22;28.10;2.80
439;DHT22;206;48.782;9.252;2022-08-07T13:27:07;28.20;2.80
439;DHT22;206;48.782;9.252;2022-08-07T13:35:30;28.40;2.90
439;DHT22;206;48.782;9.252;2022-08-07T13:38:03;28.40;2.90
439;DHT22;206;48.782;9.252;2022-08-07T13:40:42;28.40;2.90
439;DHT22;206;48.782;9.252;2022-08-07T13:43:12;28.30;2.80
439;DHT22;206;48.782;9.252;2022-08-07T13:45:40;28.40;3.50
439;DHT22;206;48.782;9.252;2022-08-07T13:48:10;28.50;2.90
439;DHT22;206;48.782;9.252;2022-08-07T13:50:40;28.50;2.90
439;DHT22;206;48.782;9.252;2022-08-07T13:53:07;28.50;2.50
439;DHT22;206;48.782;9.252;2022-08-07T13:55:34;28.60;2.10
439;DHT22;206;48.782;9.252;2022-08-07T13:58:06;28.60;2.10
439;DHT22;206;48.782;9.252;2022-08-07T14:00:52;28.50;2.40
439;DHT22;206;48.782;9.252;2022-08-07T14:03:20;28.70;2.60
439;DHT22;206;48.782;9.252;2022-08-07T14:05:49;28.80;2.00
439;DHT22;206;48.782;9.252;2022-08-07T14:08:17;28.80;1.70
439;DHT22;206;48.782;9.252;2022-08-07T14:10:45;28.80;1.60
439;DHT22;206;48.782;9.252;2022-08-07T14:13:15;28.90;1.80
439;DHT22;206;48.782;9.252;2022-08-07T14:15:49;28.90;1.50
439;DHT22;206;48.782;9.252;2022-08-07T14:18:23;28.90;2.10
439;DHT22;206;48.782;9.252;2022-08-07T14:20:53;28.90;1.60
439;DHT22;206;48.782;9.252;2022-08-07T14:23:25;29.00;1.40
439;DHT22;206;48.782;9.252;2022-08-07T14:25:58;29.10;1.20
439;DHT22;206;48.782;9.252;2022-08-07T14:28:26;29.20;1.30
439;DHT22;206;48.782;9.252;2022-08-07T14:30:53;29.30;1.10
439;DHT22;206;48.782;9.252;2022-08-07T14:33:20;29.30;1.00
439;DHT22;206;48.782;9.252;2022-08-07T14:35:47;29.20;1.40
439;DHT22;206;48.782;9.252;2022-08-07T14:38:14;29.10;1.00
439;DHT22;206;48.782;9.252;2022-08-07T14:40:41;29.20;1.00
439;DHT22;206;48.782;9.252;2022-08-07T14:43:11;29.20;1.00
439;DHT22;206;48.782;9.252;2022-08-07T14:45:42;29.20;1.20
439;DHT22;206;48.782;9.252;2022-08-07T14:48:10;29.20;1.00
439;DHT22;206;48.782;9.252;2022-08-07T14:50:58;29.20;1.00
439;DHT22;206;48.782;9.252;2022-08-07T14:53:26;29.10;1.00
439;DHT22;206;48.782;9.252;2022-08-07T14:55:55;29.10;1.10
439;DHT22;206;48.782;9.252;2022-08-07T14:58:26;29.10;1.10
439;DHT22;206;48.782;9.252;2022-08-07T15:00:57;29.00;1.10
439;DHT22;206;48.782;9.252;2022-08-07T15:03:26;29.10;1.00
439;DHT22;206;48.782;9.252;2022-08-07T15:05:53;29.10;1.10
439;DHT22;206;48.782;9.252;2022-08-07T15:08:29;29.10;1.20
439;DHT22;206;48.782;9.252;2022-08-07T15:10:58;29.00;1.30
439;DHT22;206;48.782;9.252;2022-08-07T15:13:25;29.00;1.10
439;DHT22;206;48.782;9.252;2022-08-07T15:15:56;29.00;1.00
439;DHT22;206;48.782;9.252;2022-08-07T15:18:36;29.00;1.00
439;DHT22;206;48.782;9.252;2022-08-07T15:21:06;29.10;1.30
439;DHT22;206;48.782;9.252;2022-08-07T15:23:36;29.10;1.00
439;DHT22;206;48.782;9.252;2022-08-07T15:26:03;29.20;1.00
439;DHT22;206;48.782;9.252;2022-08-07T15:28:32;29.20;1.00
439;DHT22;206;48.782;9.252;2022-08-07T15:31:05;29.10;1.00
439;DHT22;206;48.782;9.252;2022-08-07T15:33:34;29.10;1.00
439;DHT22;206;48.782;9.252;2022-08-07T15:36:04;29.10;1.00
439;DHT22;206;48.782;9.252;2022-08-07T15:38:34;29.10;1.50
439;DHT22;206;48.782;9.252;2022-08-07T15:41:08;29.10;1.00
439;DHT22;206;48.782;9.252;2022-08-07T15:43:36;29.20;1.00
439;DHT22;206;48.782;9.252;2022-08-07T15:46:24;29.20;1.00
439;DHT22;206;48.782;9.252;2022-08-07T15:48:54;29.10;1.10
439;DHT22;206;48.782;9.252;2022-08-07T15:51:22;29.10;1.20
439;DHT22;206;48.782;9.252;2022-08-07T15:53:55;29.10;1.30
439;DHT22;206;48.782;9.252;2022-08-07T15:56:28;29.10;1.30
439;DHT22;206;48.782;9.252;2022-08-07T15:59:00;29.00;1.40
439;DHT22;206;48.782;9.252;2022-08-07T16:01:39;29.10;1.00
439;DHT22;206;48.782;9.252;2022-08-07T16:04:09;29.10;1.20
439;DHT22;206;48.782;9.252;2022-08-07T16:06:38;29.10;1.40
439;DHT22;206;48.782;9.252;2022-08-07T16:14:46;29.10;1.30
439;DHT22;206;48.782;9.252;2022-08-07T16:20:49;29.10;1.00
439;DHT22;206;48.782;9.252;2022-08-07T16:26:16;29.00;1.00
439;DHT22;206;48.782;9.252;2022-08-07T16:32:01;28.90;1.30
439;DHT22;206;48.782;9.252;2022-08-07T16:34:46;28.90;1.50
439;DHT22;206;48.782;9.252;2022-08-07T16:37:54;28.80;1.50
439;DHT22;206;48.782;9.252;2022-08-07T16:43:31;28.70;1.40
439;DHT22;206;48.782;9.252;2022-08-07T17:07:53;28.50;1.10
439;DHT22;206;48.782;9.252;2022-08-07T17:21:01;28.40;1.00
439;DHT22;206;48.782;9.252;2022-08-07T17:23:39;28.40;1.00
439;DHT22;206;48.782;9.252;2022-08-07T17:31:33;28.20;1.10
439;DHT22;206;48.782;9.252;2022-08-07T17:34:56;28.20;1.20
439;DHT22;206;48.782;9.252;2022-08-07T17:37:02;28.20;1.30
439;DHT22;206;48.782;9.252;2022-08-07T17:40:00;28.20;1.30
439;DHT22;206;48.782;9.252;2022-08-07T17:45:07;28.20;1.50
439;DHT22;206;48.782;9.252;2022-08-07T17:47:46;28.30;1.30
439;DHT22;206;48.782;9.252;2022-08-07T17:50:20;28.30;1.00
439;DHT22;206;48.782;9.252;2022-08-07T17:53:07;28.20;1.00
439;DHT22;206;48.782;9.252;2022-08-07T17:55:54;28.20;1.00
439;DHT22;206;48.782;9.252;2022-08-07T18:01:20;28.20;1.00
439;DHT22;206;48.782;9.252;2022-08-07T18:06:34;28.20;1.00
439;DHT22;206;48.782;9.252;2022-08-07T18:09:02;28.10;1.00
439;DHT22;206;48.782;9.252;2022-08-07T18:11:35;28.10;1.00
439;DHT22;206;48.782;9.252;2022-08-07T18:14:25;28.10;1.00
439;DHT22;206;48.782;9.252;2022-08-07T18:19:54;28.10;1.00
439;DHT22;206;48.782;9.252;2022-08-07T18:22:29;28.00;1.00
439;DHT22;206;48.782;9.252;2022-08-07T18:24:57;28.00;1.00
439;DHT22;206;48.782;9.252;2022-08-07T18:30:11;27.90;1.00
439;DHT22;206;48.782;9.252;2022-08-07T18:36:02;27.80;1.00
439;DHT22;206;48.782;9.252;2022-08-07T18:41:21;27.70;1.00
439;DHT22;206;48.782;9.252;2022-08-07T18:44:05;27.70;1.00
439;DHT22;206;48.782;9.252;2022-08-07T18:55:21;27.50;1.00
439;DHT22;206;48.782;9.252;2022-08-07T19:00:20;27.50;1.00
439;DHT22;206;48.782;9.252;2022-08-07T19:03:04;27.50;1.00
439;DHT22;206;48.782;9.252;2022-08-07T19:05:56;27.40;1.00
439;DHT22;206;48.782;9.252;2022-08-07T19:11:25;27.40;1.00
439;DHT22;206;48.782;9.252;2022-08-07T19:14:15;27.30;1.00
439;DHT22;206;48.782;9.252;2022-08-07T19:16:54;27.30;1.00
439;DHT22;206;48.782;9.252;2022-08-07T19:19:31;27.30;1.10
439;DHT22;206;48.782;9.252;2022-08-07T19:25:00;27.20;1.10
439;DHT22;206;48.782;9.252;2022-08-07T19:27:32;27.20;1.20
439;DHT22;206;48.782;9.252;2022-08-07T19:30:00;27.10;1.40
439;DHT22;206;48.782;9.252;2022-08-07T19:32:27;27.10;1.60
439;DHT22;206;48.782;9.252;2022-08-07T19:35:00;27.10;1.80
439;DHT22;206;48.782;9.252;2022-08-07T19:37:28;27.00;1.80
439;DHT22;206;48.782;9.252;2022-08-07T19:40:05;27.00;2.10
439;DHT22;206;48.782;9.252;2022-08-07T19:42:37;27.00;2.80
439;DHT22;206;48.782;9.252;2022-08-07T19:45:05;26.90;2.20
439;DHT22;206;48.782;9.252;2022-08-07T19:47:34;26.90;2.10
439;DHT22;206;48.782;9.252;2022-08-07T19:50:05;26.80;2.10
439;DHT22;206;48.782;9.252;2022-08-07T19:52:31;26.70;2.00
439;DHT22;206;48.782;9.252;2022-08-07T19:54:57;26.70;2.40
439;DHT22;206;48.782;9.252;2022-08-07T19:57:33;26.60;2.70
439;DHT22;206;48.782;9.252;2022-08-07T20:00:05;26.60;2.60
439;DHT22;206;48.782;9.252;2022-08-07T20:02:36;26.50;2.40
439;DHT22;206;48.782;9.252;2022-08-07T20:05:06;26.40;2.60
439;DHT22;206;48.782;9.252;2022-08-07T20:07:35;26.40;2.90
439;DHT22;206;48.782;9.252;2022-08-07T20:10:02;26.30;2.70
439;DHT22;206;48.782;9.252;2022-08-07T20:12:29;26.30;2.90
439;DHT22;206;48.782;9.252;2022-08-07T20:14:57;26.30;3.20
439;DHT22;206;48.782;9.252;2022-08-07T20:17:25;26.20;3.40
439;DHT22;206;48.782;9.252;2022-08-07T20:19:51;26.20;3.50
439;DHT22;206;48.782;9.252;2022-08-07T20:22:23;26.10;3.80
439;DHT22;206;48.782;9.252;2022-08-07T20:24:54;26.00;3.80
439;DHT22;206;48.782;9.252;2022-08-07T20:27:23;26.00;3.90
439;DHT22;206;48.782;9.252;2022-08-07T20:29:57;26.00;4.20
439;DHT22;206;48.782;9.252;2022-08-07T20:32:35;25.90;4.30
439;DHT22;206;48.782;9.252;2022-08-07T20:35:05;25.90;4.80
439;DHT22;206;48.782;9.252;2022-08-07T20:37:46;25.90;4.80
439;DHT22;206;48.782;9.252;2022-08-07T20:40:15;25.80;4.50
439;DHT22;206;48.782;9.252;2022-08-07T20:42:45;25.80;4.90
439;DHT22;206;48.782;9.252;2022-08-07T20:45:13;25.70;4.70
439;DHT22;206;48.782;9.252;2022-08-07T20:47:44;25.70;4.80
439;DHT22;206;48.782;9.252;2022-08-07T20:50:10;25.60;4.70
439;DHT22;206;48.782;9.252;2022-08-07T20:52:37;25.60;4.60
439;DHT22;206;48.782;9.252;2022-08-07T20:55:03;25.60;4.80
439;DHT22;206;48.782;9.252;2022-08-07T20:57:58;25.50;4.80
439;DHT22;206;48.782;9.252;2022-08-07T21:00:40;25.40;5.20
439;DHT22;206;48.782;9.252;2022-08-07T21:03:12;25.40;5.50
439;DHT22;206;48.782;9.252;2022-08-07T21:05:42;25.30;5.50
439;DHT22;206;48.782;9.252;2022-08-07T21:08:12;25.30;5.70